sensor_id;sensor_type;location;lat;lon;timestamp;P1;durP1;ratioP1;P2;durP2;ratioP2
44432;SDS011;30136;50.600;4.608;2022-10-17T00:00:09;32.75;;;21.30;;
44432;SDS011;30136;50.600;4.608;2022-10-17T00:01:10;36.53;;;21.23;;
44432;SDS011;30136;50.600;4.608;2022-10-17T00:02:12;31.07;;;21.57;;
44432;SDS011;30136;50.600;4.608;2022-10-17T00:03:13;35.15;;;20.67;;
44432;SDS011;30136;50.600;4.608;2022-10-17T00:04:14;31.38;;;19.98;;
44432;SDS011;30136;50.600;4.608;2022-10-17T00:05:15;31.58;;;20.48;;
44432;SDS011;30136;50.600;4.608;2022-10-17T00:06:16;31.13;;;19.88;;
44432;SDS011;30136;50.600;4.608;2022-10-17T00:07:17;30.98;;;20.58;;
44432;SDS011;30136;50.600;4.608;2022-10-17T00:08:18;32.83;;;20.38;;
44432;SDS011;30136;50.600;4.608;2022-10-17T00:09:19;30.23;;;19.57;;
44432;SDS011;30136;50.600;4.608;2022-10-17T00:10:20;31.33;;;20.20;;
44432;SDS011;30136;50.600;4.608;2022-10-17T00:11:22;34.23;;;21.20;;
44432;SDS011;30136;50.600;4.608;2022-10-17T00:12:23;31.70;;;20.57;;
44432;SDS011;30136;50.600;4.608;2022-10-17T00:13:24;31.35;;;19.80;;
44432;SDS011;30136;50.600;4.608;2022-10-17T00:14:26;32.75;;;20.50;;
44432;SDS011;30136;50.600;4.608;2022-10-17T00:15:26;35.97;;;20.23;;
44432;SDS011;30136;50.600;4.608;2022-10-17T00:16:29;28.67;;;19.98;;
44432;SDS011;30136;50.600;4.608;2022-10-17T00:17:35;29.27;;;19.53;;
44432;SDS011;30136;50.600;4.608;2022-10-17T00:19:38;29.07;;;19.00;;
44432;SDS011;30136;50.600;4.608;2022-10-17T00:20:38;32.23;;;19.17;;
44432;SDS011;30136;50.600;4.608;2022-10-17T00:21:39;30.90;;;20.33;;
44432;SDS011;30136;50.600;4.608;2022-10-17T00:22:40;35.53;;;19.85;;
44432;SDS011;30136;50.600;4.608;2022-10-17T00:24:42;30.87;;;18.73;;
44432;SDS011;30136;50.600;4.608;2022-10-17T00:25:43;31.30;;;19.83;;
44432;SDS011;30136;50.600;4.608;2022-10-17T00:26:44;30.08;;;19.40;;
44432;SDS011;30136;50.600;4.608;2022-10-17T00:27:45;30.40;;;19.27;;
44432;SDS011;30136;50.600;4.608;2022-10-17T00:28:48;28.90;;;18.53;;
44432;SDS011;30136;50.600;4.608;2022-10-17T00:29:51;27.00;;;17.80;;
44432;SDS011;30136;50.600;4.608;2022-10-17T00:30:58;27.92;;;18.50;;
44432;SDS011;30136;50.600;4.608;2022-10-17T00:32:02;27.50;;;18.53;;
44432;SDS011;30136;50.600;4.608;2022-10-17T00:33:03;30.50;;;17.98;;
44432;SDS011;30136;50.600;4.608;2022-10-17T00:34:04;29.02;;;18.42;;
44432;SDS011;30136;50.600;4.608;2022-10-17T00:35:05;27.33;;;17.95;;
44432;SDS011;30136;50.600;4.608;2022-10-17T00:37:12;27.47;;;18.00;;
44432;SDS011;30136;50.600;4.608;2022-10-17T00:38:13;30.52;;;18.92;;
44432;SDS011;30136;50.600;4.608;2022-10-17T00:39:14;30.35;;;18.23;;
44432;SDS011;30136;50.600;4.608;2022-10-17T00:40:15;27.10;;;18.35;;
44432;SDS011;30136;50.600;4.608;2022-10-17T00:41:17;27.27;;;17.80;;
44432;SDS011;30136;50.600;4.608;2022-10-17T00:42:21;26.93;;;17.83;;
44432;SDS011;30136;50.600;4.608;2022-10-17T00:43:23;30.03;;;18.17;;
44432;SDS011;30136;50.600;4.608;2022-10-17T00:45:30;28.23;;;17.57;;
44432;SDS011;30136;50.600;4.608;2022-10-17T00:46:32;30.40;;;18.08;;
44432;SDS011;30136;50.600;4.608;2022-10-17T00:47:38;28.63;;;17.73;;
44432;SDS011;30136;50.600;4.608;2022-10-17T00:49:41;27.48;;;17.02;;
44432;SDS011;30136;50.600;4.608;2022-10-17T00:50:43;26.20;;;16.17;;
44432;SDS011;30136;50.600;4.608;2022-10-17T00:51:48;25.30;;;16.63;;
44432;SDS011;30136;50.600;4.608;2022-10-17T00:52:53;23.43;;;16.23;;
44432;SDS011;30136;50.600;4.608;2022-10-17T00:53:58;26.53;;;16.90;;
44432;SDS011;30136;50.600;4.608;2022-10-17T00:55:02;24.83;;;17.07;;
44432;SDS011;30136;50.600;4.608;2022-10-17T00:56:14;30.47;;;17.47;;
44432;SDS011;30136;50.600;4.608;2022-10-17T00:57:17;24.50;;;15.77;;
44432;SDS011;30136;50.600;4.608;2022-10-17T00:58:18;28.35;;;17.52;;
44432;SDS011;30136;50.600;4.608;2022-10-17T01:00:22;26.45;;;17.00;;
44432;SDS011;30136;50.600;4.608;2022-10-17T01:01:24;30.00;;;17.93;;
44432;SDS011;30136;50.600;4.608;2022-10-17T01:02:25;23.17;;;16.13;;
44432;SDS011;30136;50.600;4.608;2022-10-17T01:03:26;27.55;;;16.85;;
44432;SDS011;30136;50.600;4.608;2022-10-17T01:04:27;28.77;;;16.05;;
44432;SDS011;30136;50.600;4.608;2022-10-17T01:05:28;24.87;;;16.43;;
44432;SDS011;30136;50.600;4.608;2022-10-17T01:06:29;26.63;;;15.93;;
44432;SDS011;30136;50.600;4.608;2022-10-17T01:07:30;24.25;;;16.13;;
44432;SDS011;30136;50.600;4.608;2022-10-17T01:09:32;26.20;;;16.53;;
44432;SDS011;30136;50.600;4.608;2022-10-17T01:10:42;28.70;;;15.93;;
44432;SDS011;30136;50.600;4.608;2022-10-17T01:13:25;22.20;;;15.47;;
44432;SDS011;30136;50.600;4.608;2022-10-17T01:16:01;26.67;;;16.65;;
44432;SDS011;30136;50.600;4.608;2022-10-17T01:17:23;25.97;;;15.90;;
44432;SDS011;30136;50.600;4.608;2022-10-17T01:19:02;21.73;;;15.03;;
44432;SDS011;30136;50.600;4.608;2022-10-17T01:20:44;22.47;;;15.67;;
44432;SDS011;30136;50.600;4.608;2022-10-17T01:24:07;26.13;;;16.33;;
44432;SDS011;30136;50.600;4.608;2022-10-17T01:28:42;23.50;;;15.27;;
44432;SDS011;30136;50.600;4.608;2022-10-17T01:31:54;21.60;;;14.37;;
44432;SDS011;30136;50.600;4.608;2022-10-17T01:33:26;23.20;;;15.30;;
44432;SDS011;30136;50.600;4.608;2022-10-17T01:38:49;22.47;;;14.17;;
44432;SDS011;30136;50.600;4.608;2022-10-17T01:40:03;21.10;;;13.60;;
44432;SDS011;30136;50.600;4.608;2022-10-17T01:42:26;19.80;;;13.35;;
44432;SDS011;30136;50.600;4.608;2022-10-17T01:43:40;18.20;;;13.10;;
44432;SDS011;30136;50.600;4.608;2022-10-17T01:46:21;21.37;;;13.07;;
44432;SDS011;30136;50.600;4.608;2022-10-17T01:47:30;24.53;;;13.80;;
44432;SDS011;30136;50.600;4.608;2022-10-17T01:48:35;20.90;;;13.70;;
44432;SDS011;30136;50.600;4.608;2022-10-17T01:49:38;18.67;;;13.30;;
44432;SDS011;30136;50.600;4.608;2022-10-17T01:50:44;19.20;;;13.30;;
44432;SDS011;30136;50.600;4.608;2022-10-17T01:52:07;20.87;;;13.80;;
44432;SDS011;30136;50.600;4.608;2022-10-17T01:53:15;20.17;;;13.07;;
44432;SDS011;30136;50.600;4.608;2022-10-17T01:54:39;19.57;;;13.53;;
44432;SDS011;30136;50.600;4.608;2022-10-17T01:55:47;26.20;;;13.27;;
44432;SDS011;30136;50.600;4.608;2022-10-17T01:56:55;25.60;;;12.73;;
44432;SDS011;30136;50.600;4.608;2022-10-17T01:58:04;29.73;;;13.67;;
44432;SDS011;30136;50.600;4.608;2022-10-17T01:59:23;19.23;;;11.93;;
44432;SDS011;30136;50.600;4.608;2022-10-17T02:00:29;23.23;;;12.57;;
44432;SDS011;30136;50.600;4.608;2022-10-17T02:01:33;24.20;;;12.37;;
44432;SDS011;30136;50.600;4.608;2022-10-17T02:02:37;24.23;;;13.53;;
44432;SDS011;30136;50.600;4.608;2022-10-17T02:03:41;18.37;;;12.77;;
44432;SDS011;30136;50.600;4.608;2022-10-17T02:04:45;25.17;;;11.93;;
44432;SDS011;30136;50.600;4.608;2022-10-17T02:05:49;18.77;;;12.77;;
44432;SDS011;30136;50.600;4.608;2022-10-17T02:06:50;23.30;;;13.95;;
44432;SDS011;30136;50.600;4.608;2022-10-17T02:07:51;22.63;;;13.02;;
44432;SDS011;30136;50.600;4.608;2022-10-17T02:08:53;26.25;;;13.80;;
44432;SDS011;30136;50.600;4.608;2022-10-17T02:09:54;20.25;;;11.68;;
44432;SDS011;30136;50.600;4.608;2022-10-17T02:11:02;17.17;;;12.23;;
44432;SDS011;30136;50.600;4.608;2022-10-17T02:12:36;20.60;;;12.87;;
44432;SDS011;30136;50.600;4.608;2022-10-17T02:13:53;17.03;;;11.87;;
44432;SDS011;30136;50.600;4.608;2022-10-17T02:18:56;19.30;;;12.35;;
44432;SDS011;30136;50.600;4.608;2022-10-17T02:20:18;22.13;;;11.97;;
44432;SDS011;30136;50.600;4.608;2022-10-17T02:22:57;18.10;;;11.35;;
44432;SDS011;30136;50.600;4.608;2022-10-17T02:26:31;17.67;;;12.40;;
44432;SDS011;30136;50.600;4.608;2022-10-17T02:27:51;17.50;;;11.57;;
44432;SDS011;30136;50.600;4.608;2022-10-17T02:29:37;18.17;;;11.87;;
44432;SDS011;30136;50.600;4.608;2022-10-17T02:32:22;17.50;;;11.77;;
44432;SDS011;30136;50.600;4.608;2022-10-17T02:33:34;16.23;;;11.13;;
44432;SDS011;30136;50.600;4.608;2022-10-17T02:34:45;15.13;;;11.40;;
44432;SDS011;30136;50.600;4.608;2022-10-17T02:35:51;19.80;;;11.07;;
44432;SDS011;30136;50.600;4.608;2022-10-17T02:37:01;18.57;;;11.93;;
44432;SDS011;30136;50.600;4.608;2022-10-17T02:38:05;16.43;;;11.60;;
44432;SDS011;30136;50.600;4.608;2022-10-17T02:39:09;17.83;;;11.37;;
44432;SDS011;30136;50.600;4.608;2022-10-17T02:40:11;17.53;;;11.10;;
44432;SDS011;30136;50.600;4.608;2022-10-17T02:41:15;16.03;;;11.27;;
44432;SDS011;30136;50.600;4.608;2022-10-17T02:42:17;15.23;;;10.70;;
44432;SDS011;30136;50.600;4.608;2022-10-17T02:43:21;16.27;;;11.13;;
44432;SDS011;30136;50.600;4.608;2022-10-17T02:44:24;17.20;;;10.57;;
44432;SDS011;30136;50.600;4.608;2022-10-17T02:45:28;18.03;;;11.57;;
44432;SDS011;30136;50.600;4.608;2022-10-17T02:46:35;15.47;;;10.73;;
44432;SDS011;30136;50.600;4.608;2022-10-17T02:47:43;14.60;;;10.27;;
44432;SDS011;30136;50.600;4.608;2022-10-17T02:49:56;17.40;;;10.50;;
44432;SDS011;30136;50.600;4.608;2022-10-17T02:51:04;12.83;;;10.00;;
44432;SDS011;30136;50.600;4.608;2022-10-17T02:53:36;15.50;;;10.10;;
44432;SDS011;30136;50.600;4.608;2022-10-17T02:54:52;16.47;;;10.67;;
44432;SDS011;30136;50.600;4.608;2022-10-17T02:56:00;19.73;;;10.63;;
44432;SDS011;30136;50.600;4.608;2022-10-17T02:57:09;15.70;;;10.10;;
44432;SDS011;30136;50.600;4.608;2022-10-17T02:58:22;14.97;;;10.27;;
44432;SDS011;30136;50.600;4.608;2022-10-17T02:59:29;14.33;;;10.20;;
44432;SDS011;30136;50.600;4.608;2022-10-17T03:00:34;17.87;;;10.47;;
44432;SDS011;30136;50.600;4.608;2022-10-17T03:01:38;16.37;;;10.70;;
44432;SDS011;30136;50.600;4.608;2022-10-17T03:02:41;14.63;;;10.70;;
44432;SDS011;30136;50.600;4.608;2022-10-17T03:04:02;15.23;;;10.47;;
44432;SDS011;30136;50.600;4.608;2022-10-17T03:05:09;14.00;;;10.20;;
44432;SDS011;30136;50.600;4.608;2022-10-17T03:06:13;16.17;;;10.13;;
44432;SDS011;30136;50.600;4.608;2022-10-17T03:07:14;14.60;;;10.18;;
44432;SDS011;30136;50.600;4.608;2022-10-17T03:08:15;13.90;;;10.10;;
44432;SDS011;30136;50.600;4.608;2022-10-17T03:09:16;15.75;;;9.88;;
44432;SDS011;30136;50.600;4.608;2022-10-17T03:10:17;15.37;;;10.20;;
44432;SDS011;30136;50.600;4.608;2022-10-17T03:11:19;15.63;;;9.77;;
44432;SDS011;30136;50.600;4.608;2022-10-17T03:12:20;13.10;;;9.27;;
44432;SDS011;30136;50.600;4.608;2022-10-17T03:13:20;13.30;;;9.45;;
44432;SDS011;30136;50.600;4.608;2022-10-17T03:14:21;14.57;;;9.77;;
44432;SDS011;30136;50.600;4.608;2022-10-17T03:15:22;13.52;;;9.98;;
44432;SDS011;30136;50.600;4.608;2022-10-17T03:16:23;15.93;;;10.40;;
44432;SDS011;30136;50.600;4.608;2022-10-17T03:17:24;14.70;;;9.50;;
44432;SDS011;30136;50.600;4.608;2022-10-17T03:19:31;12.93;;;8.93;;
44432;SDS011;30136;50.600;4.608;2022-10-17T03:20:32;16.08;;;10.52;;
44432;SDS011;30136;50.600;4.608;2022-10-17T03:21:33;14.27;;;9.45;;
44432;SDS011;30136;50.600;4.608;2022-10-17T03:22:36;14.27;;;9.87;;
44432;SDS011;30136;50.600;4.608;2022-10-17T03:23:38;15.03;;;10.07;;
44432;SDS011;30136;50.600;4.608;2022-10-17T03:25:41;14.07;;;10.13;;
44432;SDS011;30136;50.600;4.608;2022-10-17T03:26:42;12.68;;;9.35;;
44432;SDS011;30136;50.600;4.608;2022-10-17T03:27:42;11.77;;;9.50;;
44432;SDS011;30136;50.600;4.608;2022-10-17T03:28:43;12.85;;;9.32;;
44432;SDS011;30136;50.600;4.608;2022-10-17T03:29:44;13.98;;;9.50;;
44432;SDS011;30136;50.600;4.608;2022-10-17T03:30:47;13.67;;;9.03;;
44432;SDS011;30136;50.600;4.608;2022-10-17T03:31:48;13.25;;;9.75;;
44432;SDS011;30136;50.600;4.608;2022-10-17T03:32:50;15.82;;;9.80;;
44432;SDS011;30136;50.600;4.608;2022-10-17T03:33:50;19.08;;;9.25;;
44432;SDS011;30136;50.600;4.608;2022-10-17T03:34:51;12.25;;;9.15;;
44432;SDS011;30136;50.600;4.608;2022-10-17T03:35:52;12.73;;;8.75;;
44432;SDS011;30136;50.600;4.608;2022-10-17T03:36:53;11.70;;;8.13;;
44432;SDS011;30136;50.600;4.608;2022-10-17T03:37:55;15.00;;;9.40;;
44432;SDS011;30136;50.600;4.608;2022-10-17T03:38:57;16.63;;;9.40;;
44432;SDS011;30136;50.600;4.608;2022-10-17T03:39:58;12.52;;;8.98;;
44432;SDS011;30136;50.600;4.608;2022-10-17T03:40:59;13.50;;;9.23;;
44432;SDS011;30136;50.600;4.608;2022-10-17T03:42:01;12.13;;;8.63;;
44432;SDS011;30136;50.600;4.608;2022-10-17T03:43:02;12.10;;;9.18;;
44432;SDS011;30136;50.600;4.608;2022-10-17T03:44:03;12.60;;;8.68;;
44432;SDS011;30136;50.600;4.608;2022-10-17T03:45:05;12.77;;;9.52;;
44432;SDS011;30136;50.600;4.608;2022-10-17T03:46:06;10.50;;;8.32;;
44432;SDS011;30136;50.600;4.608;2022-10-17T03:47:08;12.10;;;8.50;;
44432;SDS011;30136;50.600;4.608;2022-10-17T03:49:10;11.80;;;8.23;;
44432;SDS011;30136;50.600;4.608;2022-10-17T03:50:11;14.75;;;8.05;;
44432;SDS011;30136;50.600;4.608;2022-10-17T03:51:13;11.70;;;8.30;;
44432;SDS011;30136;50.600;4.608;2022-10-17T03:52:19;14.37;;;9.23;;
44432;SDS011;30136;50.600;4.608;2022-10-17T03:53:21;14.48;;;8.98;;
44432;SDS011;30136;50.600;4.608;2022-10-17T03:54:22;11.40;;;8.30;;
44432;SDS011;30136;50.600;4.608;2022-10-17T03:55:23;10.80;;;8.30;;
44432;SDS011;30136;50.600;4.608;2022-10-17T03:56:24;11.98;;;8.88;;
44432;SDS011;30136;50.600;4.608;2022-10-17T03:57:38;12.40;;;8.57;;
44432;SDS011;30136;50.600;4.608;2022-10-17T03:58:39;11.57;;;8.07;;
44432;SDS011;30136;50.600;4.608;2022-10-17T03:59:41;10.20;;;7.88;;
44432;SDS011;30136;50.600;4.608;2022-10-17T04:00:48;11.47;;;8.27;;
44432;SDS011;30136;50.600;4.608;2022-10-17T04:01:49;13.35;;;8.77;;
44432;SDS011;30136;50.600;4.608;2022-10-17T04:02:50;11.55;;;7.82;;
44432;SDS011;30136;50.600;4.608;2022-10-17T04:03:53;11.43;;;8.10;;
44432;SDS011;30136;50.600;4.608;2022-10-17T04:04:55;10.87;;;7.73;;
44432;SDS011;30136;50.600;4.608;2022-10-17T04:05:59;11.02;;;8.32;;
44432;SDS011;30136;50.600;4.608;2022-10-17T04:07:02;11.97;;;8.40;;
44432;SDS011;30136;50.600;4.608;2022-10-17T04:08:03;11.40;;;8.43;;
44432;SDS011;30136;50.600;4.608;2022-10-17T04:09:24;10.63;;;8.17;;
44432;SDS011;30136;50.600;4.608;2022-10-17T04:10:34;11.03;;;8.17;;
44432;SDS011;30136;50.600;4.608;2022-10-17T04:11:34;10.93;;;8.15;;
44432;SDS011;30136;50.600;4.608;2022-10-17T04:12:36;10.90;;;8.00;;
44432;SDS011;30136;50.600;4.608;2022-10-17T04:13:38;10.23;;;7.73;;
44432;SDS011;30136;50.600;4.608;2022-10-17T04:14:40;10.37;;;7.93;;
44432;SDS011;30136;50.600;4.608;2022-10-17T04:15:40;17.90;;;8.70;;
44432;SDS011;30136;50.600;4.608;2022-10-17T04:16:41;9.17;;;7.43;;
44432;SDS011;30136;50.600;4.608;2022-10-17T04:17:50;10.73;;;7.43;;
44432;SDS011;30136;50.600;4.608;2022-10-17T04:18:52;12.55;;;8.27;;
44432;SDS011;30136;50.600;4.608;2022-10-17T04:19:56;9.70;;;7.47;;
44432;SDS011;30136;50.600;4.608;2022-10-17T04:20:56;10.60;;;7.93;;
44432;SDS011;30136;50.600;4.608;2022-10-17T04:22:00;10.83;;;8.10;;
44432;SDS011;30136;50.600;4.608;2022-10-17T04:23:06;11.70;;;7.33;;
44432;SDS011;30136;50.600;4.608;2022-10-17T04:24:08;10.68;;;8.13;;
44432;SDS011;30136;50.600;4.608;2022-10-17T04:25:26;10.17;;;7.73;;
44432;SDS011;30136;50.600;4.608;2022-10-17T04:26:27;9.70;;;7.85;;
44432;SDS011;30136;50.600;4.608;2022-10-17T04:27:28;10.00;;;8.13;;
44432;SDS011;30136;50.600;4.608;2022-10-17T04:28:29;9.50;;;7.15;;
44432;SDS011;30136;50.600;4.608;2022-10-17T04:29:31;10.40;;;7.33;;
44432;SDS011;30136;50.600;4.608;2022-10-17T04:30:41;10.97;;;7.77;;
44432;SDS011;30136;50.600;4.608;2022-10-17T04:31:42;10.18;;;7.70;;
44432;SDS011;30136;50.600;4.608;2022-10-17T04:32:50;11.93;;;7.70;;
44432;SDS011;30136;50.600;4.608;2022-10-17T04:33:54;11.23;;;7.93;;
44432;SDS011;30136;50.600;4.608;2022-10-17T04:34:55;10.85;;;8.00;;
44432;SDS011;30136;50.600;4.608;2022-10-17T04:37:04;10.87;;;6.80;;
44432;SDS011;30136;50.600;4.608;2022-10-17T04:38:06;11.13;;;7.40;;
44432;SDS011;30136;50.600;4.608;2022-10-17T04:39:07;9.60;;;7.27;;
44432;SDS011;30136;50.600;4.608;2022-10-17T04:40:09;11.73;;;7.70;;
44432;SDS011;30136;50.600;4.608;2022-10-17T04:41:12;9.95;;;7.60;;
44432;SDS011;30136;50.600;4.608;2022-10-17T04:42:15;12.23;;;7.37;;
44432;SDS011;30136;50.600;4.608;2022-10-17T04:43:16;16.40;;;8.00;;
44432;SDS011;30136;50.600;4.608;2022-10-17T04:44:18;9.60;;;7.10;;
44432;SDS011;30136;50.600;4.608;2022-10-17T04:45:24;11.30;;;7.37;;
44432;SDS011;30136;50.600;4.608;2022-10-17T04:46:32;9.80;;;7.20;;
44432;SDS011;30136;50.600;4.608;2022-10-17T04:47:33;9.27;;;7.20;;
44432;SDS011;30136;50.600;4.608;2022-10-17T04:48:34;10.82;;;7.25;;
44432;SDS011;30136;50.600;4.608;2022-10-17T04:49:36;10.43;;;7.50;;
44432;SDS011;30136;50.600;4.608;2022-10-17T04:50:51;10.27;;;7.43;;
44432;SDS011;30136;50.600;4.608;2022-10-17T04:53:12;9.63;;;6.53;;
44432;SDS011;30136;50.600;4.608;2022-10-17T04:54:14;11.13;;;7.17;;
44432;SDS011;30136;50.600;4.608;2022-10-17T04:55:17;8.97;;;6.63;;
44432;SDS011;30136;50.600;4.608;2022-10-17T04:56:18;9.85;;;6.60;;
44432;SDS011;30136;50.600;4.608;2022-10-17T04:57:21;9.30;;;6.70;;
44432;SDS011;30136;50.600;4.608;2022-10-17T04:58:31;10.57;;;6.73;;
44432;SDS011;30136;50.600;4.608;2022-10-17T04:59:32;7.87;;;6.30;;
44432;SDS011;30136;50.600;4.608;2022-10-17T05:00:46;8.20;;;6.53;;
44432;SDS011;30136;50.600;4.608;2022-10-17T05:02:00;9.17;;;6.87;;
44432;SDS011;30136;50.600;4.608;2022-10-17T05:03:01;9.63;;;6.93;;
44432;SDS011;30136;50.600;4.608;2022-10-17T05:04:03;10.63;;;6.50;;
44432;SDS011;30136;50.600;4.608;2022-10-17T05:05:04;8.30;;;6.53;;
44432;SDS011;30136;50.600;4.608;2022-10-17T05:06:06;8.67;;;6.17;;
44432;SDS011;30136;50.600;4.608;2022-10-17T05:07:12;10.87;;;6.53;;
44432;SDS011;30136;50.600;4.608;2022-10-17T05:08:13;9.48;;;7.05;;
44432;SDS011;30136;50.600;4.608;2022-10-17T05:09:15;8.87;;;6.67;;
44432;SDS011;30136;50.600;4.608;2022-10-17T05:10:16;9.43;;;6.60;;
44432;SDS011;30136;50.600;4.608;2022-10-17T05:11:20;9.30;;;7.23;;
44432;SDS011;30136;50.600;4.608;2022-10-17T05:12:26;10.50;;;7.27;;
44432;SDS011;30136;50.600;4.608;2022-10-17T05:13:28;8.82;;;6.72;;
44432;SDS011;30136;50.600;4.608;2022-10-17T05:14:30;9.07;;;6.40;;
44432;SDS011;30136;50.600;4.608;2022-10-17T05:15:31;12.23;;;6.93;;
44432;SDS011;30136;50.600;4.608;2022-10-17T05:16:32;9.35;;;7.00;;
44432;SDS011;30136;50.600;4.608;2022-10-17T05:17:35;8.37;;;6.27;;
44432;SDS011;30136;50.600;4.608;2022-10-17T05:18:36;10.02;;;6.75;;
44432;SDS011;30136;50.600;4.608;2022-10-17T05:19:37;7.95;;;6.63;;
44432;SDS011;30136;50.600;4.608;2022-10-17T05:20:38;8.80;;;6.30;;
44432;SDS011;30136;50.600;4.608;2022-10-17T05:21:40;9.07;;;6.43;;
44432;SDS011;30136;50.600;4.608;2022-10-17T05:22:41;10.53;;;6.83;;
44432;SDS011;30136;50.600;4.608;2022-10-17T05:23:42;7.68;;;6.35;;
44432;SDS011;30136;50.600;4.608;2022-10-17T05:24:43;7.95;;;6.00;;
44432;SDS011;30136;50.600;4.608;2022-10-17T05:25:44;9.55;;;6.20;;
44432;SDS011;30136;50.600;4.608;2022-10-17T05:26:45;8.50;;;5.77;;
44432;SDS011;30136;50.600;4.608;2022-10-17T05:27:49;7.83;;;6.43;;
44432;SDS011;30136;50.600;4.608;2022-10-17T05:28:51;8.00;;;6.30;;
44432;SDS011;30136;50.600;4.608;2022-10-17T05:29:54;9.80;;;6.13;;
44432;SDS011;30136;50.600;4.608;2022-10-17T05:31:03;7.77;;;5.80;;
44432;SDS011;30136;50.600;4.608;2022-10-17T05:32:05;8.50;;;6.10;;
44432;SDS011;30136;50.600;4.608;2022-10-17T05:33:07;6.37;;;5.30;;
44432;SDS011;30136;50.600;4.608;2022-10-17T05:34:09;8.30;;;5.15;;
44432;SDS011;30136;50.600;4.608;2022-10-17T05:35:10;8.07;;;5.53;;
44432;SDS011;30136;50.600;4.608;2022-10-17T05:36:12;7.80;;;5.50;;
44432;SDS011;30136;50.600;4.608;2022-10-17T05:38:19;5.90;;;4.53;;
44432;SDS011;30136;50.600;4.608;2022-10-17T05:39:20;5.37;;;4.70;;
44432;SDS011;30136;50.600;4.608;2022-10-17T05:40:23;8.23;;;4.87;;
44432;SDS011;30136;50.600;4.608;2022-10-17T05:41:26;6.60;;;4.43;;
44432;SDS011;30136;50.600;4.608;2022-10-17T05:42:27;4.78;;;4.10;;
44432;SDS011;30136;50.600;4.608;2022-10-17T05:43:30;5.87;;;4.43;;
44432;SDS011;30136;50.600;4.608;2022-10-17T05:44:32;5.93;;;4.47;;
44432;SDS011;30136;50.600;4.608;2022-10-17T05:45:34;4.68;;;4.13;;
44432;SDS011;30136;50.600;4.608;2022-10-17T05:46:35;5.77;;;4.07;;
44432;SDS011;30136;50.600;4.608;2022-10-17T05:47:36;5.22;;;3.92;;
44432;SDS011;30136;50.600;4.608;2022-10-17T05:48:37;4.47;;;3.75;;
44432;SDS011;30136;50.600;4.608;2022-10-17T05:49:39;6.65;;;4.72;;
44432;SDS011;30136;50.600;4.608;2022-10-17T05:50:40;6.70;;;4.47;;
44432;SDS011;30136;50.600;4.608;2022-10-17T05:51:48;8.43;;;3.83;;
44432;SDS011;30136;50.600;4.608;2022-10-17T05:52:53;6.05;;;4.10;;
44432;SDS011;30136;50.600;4.608;2022-10-17T05:53:55;8.07;;;4.07;;
44432;SDS011;30136;50.600;4.608;2022-10-17T05:55:00;5.47;;;3.90;;
44432;SDS011;30136;50.600;4.608;2022-10-17T05:57:05;5.87;;;4.30;;
44432;SDS011;30136;50.600;4.608;2022-10-17T05:58:07;4.17;;;3.73;;
44432;SDS011;30136;50.600;4.608;2022-10-17T05:59:12;5.77;;;3.83;;
44432;SDS011;30136;50.600;4.608;2022-10-17T06:00:23;5.37;;;4.00;;
44432;SDS011;30136;50.600;4.608;2022-10-17T06:01:30;5.37;;;3.73;;
44432;SDS011;30136;50.600;4.608;2022-10-17T06:02:31;5.43;;;3.60;;
44432;SDS011;30136;50.600;4.608;2022-10-17T06:03:32;5.97;;;3.70;;
44432;SDS011;30136;50.600;4.608;2022-10-17T06:04:37;6.23;;;3.73;;
44432;SDS011;30136;50.600;4.608;2022-10-17T06:05:44;5.63;;;4.03;;
44432;SDS011;30136;50.600;4.608;2022-10-17T06:06:45;4.90;;;3.55;;
44432;SDS011;30136;50.600;4.608;2022-10-17T06:07:47;6.20;;;3.97;;
44432;SDS011;30136;50.600;4.608;2022-10-17T06:08:56;5.35;;;3.92;;
44432;SDS011;30136;50.600;4.608;2022-10-17T06:10:02;7.10;;;3.55;;
44432;SDS011;30136;50.600;4.608;2022-10-17T06:11:04;4.85;;;3.80;;
44432;SDS011;30136;50.600;4.608;2022-10-17T06:12:05;6.75;;;3.47;;
44432;SDS011;30136;50.600;4.608;2022-10-17T06:13:06;8.55;;;3.88;;
44432;SDS011;30136;50.600;4.608;2022-10-17T06:14:08;5.13;;;3.47;;
44432;SDS011;30136;50.600;4.608;2022-10-17T06:15:11;3.87;;;3.43;;
44432;SDS011;30136;50.600;4.608;2022-10-17T06:16:14;6.37;;;3.73;;
44432;SDS011;30136;50.600;4.608;2022-10-17T06:17:15;4.88;;;3.72;;
44432;SDS011;30136;50.600;4.608;2022-10-17T06:18:17;4.80;;;3.83;;
44432;SDS011;30136;50.600;4.608;2022-10-17T06:19:17;4.53;;;3.78;;
44432;SDS011;30136;50.600;4.608;2022-10-17T06:20:20;4.67;;;3.50;;
44432;SDS011;30136;50.600;4.608;2022-10-17T06:21:25;5.25;;;3.53;;
44432;SDS011;30136;50.600;4.608;2022-10-17T06:22:35;4.80;;;3.73;;
44432;SDS011;30136;50.600;4.608;2022-10-17T06:23:40;5.23;;;3.77;;
44432;SDS011;30136;50.600;4.608;2022-10-17T06:24:47;5.47;;;3.70;;
44432;SDS011;30136;50.600;4.608;2022-10-17T06:25:48;5.88;;;3.58;;
44432;SDS011;30136;50.600;4.608;2022-10-17T06:26:49;3.85;;;3.30;;
44432;SDS011;30136;50.600;4.608;2022-10-17T06:27:52;4.50;;;3.77;;
44432;SDS011;30136;50.600;4.608;2022-10-17T06:28:54;4.63;;;3.47;;
44432;SDS011;30136;50.600;4.608;2022-10-17T06:29:56;5.30;;;3.80;;
44432;SDS011;30136;50.600;4.608;2022-10-17T06:30:57;5.40;;;3.58;;
44432;SDS011;30136;50.600;4.608;2022-10-17T06:31:58;8.25;;;3.70;;
44432;SDS011;30136;50.600;4.608;2022-10-17T06:32:59;4.90;;;3.50;;
44432;SDS011;30136;50.600;4.608;2022-10-17T06:34:01;3.47;;;3.17;;
44432;SDS011;30136;50.600;4.608;2022-10-17T06:35:02;4.93;;;3.70;;
44432;SDS011;30136;50.600;4.608;2022-10-17T06:37:07;3.83;;;3.30;;
44432;SDS011;30136;50.600;4.608;2022-10-17T06:38:09;5.90;;;3.40;;
44432;SDS011;30136;50.600;4.608;2022-10-17T06:39:11;5.30;;;3.40;;
44432;SDS011;30136;50.600;4.608;2022-10-17T06:40:21;5.57;;;3.80;;
44432;SDS011;30136;50.600;4.608;2022-10-17T06:41:22;7.20;;;3.58;;
44432;SDS011;30136;50.600;4.608;2022-10-17T06:42:26;5.37;;;4.07;;
44432;SDS011;30136;50.600;4.608;2022-10-17T06:43:41;3.93;;;3.47;;
44432;SDS011;30136;50.600;4.608;2022-10-17T06:45:11;5.30;;;3.70;;
44432;SDS011;30136;50.600;4.608;2022-10-17T06:46:22;8.57;;;3.38;;
44432;SDS011;30136;50.600;4.608;2022-10-17T06:47:39;6.20;;;4.00;;
44432;SDS011;30136;50.600;4.608;2022-10-17T06:48:55;5.43;;;4.07;;
44432;SDS011;30136;50.600;4.608;2022-10-17T06:50:16;5.33;;;3.77;;
44432;SDS011;30136;50.600;4.608;2022-10-17T06:51:33;4.03;;;3.13;;
44432;SDS011;30136;50.600;4.608;2022-10-17T06:52:35;4.50;;;3.83;;
44432;SDS011;30136;50.600;4.608;2022-10-17T06:54:15;6.77;;;3.60;;
44432;SDS011;30136;50.600;4.608;2022-10-17T06:55:34;10.47;;;3.93;;
44432;SDS011;30136;50.600;4.608;2022-10-17T06:56:55;8.93;;;3.67;;
44432;SDS011;30136;50.600;4.608;2022-10-17T06:58:04;7.60;;;3.80;;
44432;SDS011;30136;50.600;4.608;2022-10-17T06:59:18;8.83;;;3.77;;
44432;SDS011;30136;50.600;4.608;2022-10-17T07:00:27;22.80;;;3.70;;
44432;SDS011;30136;50.600;4.608;2022-10-17T07:01:30;21.70;;;3.80;;
44432;SDS011;30136;50.600;4.608;2022-10-17T07:02:34;39.10;;;4.53;;
44432;SDS011;30136;50.600;4.608;2022-10-17T07:03:35;25.73;;;4.37;;
44432;SDS011;30136;50.600;4.608;2022-10-17T07:05:38;9.17;;;3.70;;
44432;SDS011;30136;50.600;4.608;2022-10-17T07:06:39;13.68;;;4.72;;
44432;SDS011;30136;50.600;4.608;2022-10-17T07:07:51;10.53;;;3.93;;
44432;SDS011;30136;50.600;4.608;2022-10-17T07:08:52;9.63;;;4.15;;
44432;SDS011;30136;50.600;4.608;2022-10-17T07:09:54;11.17;;;3.53;;
44432;SDS011;30136;50.600;4.608;2022-10-17T07:10:55;10.00;;;4.13;;